Time;durP1;ratioP1;P1;durP2;ratioP2;P2;SDS_P1;SDS_P2;PMS_P1;PMS_P2;Temp;Humidity;BMP_temperature;BMP_pressure;BME280_temperature;BME280_humidity;BME280_pressure;Samples;Min_cycle;Max_cycle;Signal;HPM_P1;HPM_P2
2023/04/01 00:01:43;;;;;;;;;;;17.70;71.90;;;;;;9975218;29;93375;-64
2023/04/01 00:06:45;;;;;;;;;;;17.70;71.90;;;;;;9974382;29;93596;-64
2023/04/01 00:11:47;;;;;;;;;;;17.70;71.90;;;;;;9975174;29;92810;-64
2023/04/01 00:16:49;;;;;;;;;;;17.70;71.90;;;;;;9975370;29;92708;-64
2023/04/01 00:21:52;;;;;;;;;;;17.70;71.80;;;;;;9975859;29;93795;-63
2023/04/01 00:26:53;;;;;;;;;;;17.70;71.80;;;;;;9974900;29;94444;-64
2023/04/01 00:31:56;;;;;;;;;;;17.60;71.80;;;;;;9972251;29;95925;-64
2023/04/01 00:36:57;;;;;;;;;;;17.60;71.80;;;;;;9974463;29;93591;-64
2023/04/01 00:42:00;;;;;;;;;;;17.60;71.70;;;;;;9974347;29;94371;-64
2023/04/01 00:47:01;;;;;;;;;;;17.60;71.60;;;;;;9974626;29;94528;-64
2023/04/01 00:52:05;;;;;;;;;;;17.60;71.70;;;;;;9973864;29;94365;-64
2023/04/01 00:57:15;;;;;;;;;;;17.60;71.70;;;;;;9971968;29;93839;-64
2023/04/01 01:02:18;;;;;;;;;;;17.50;71.60;;;;;;9972539;29;93349;-64
2023/04/01 01:07:35;;;;;;;;;;;17.50;71.60;;;;;;9972878;29;93917;-63
2023/04/01 01:12:52;;;;;;;;;;;17.50;71.60;;;;;;9973714;29;94556;-64
2023/04/01 01:18:05;;;;;;;;;;;17.50;71.60;;;;;;9972031;29;94580;-64
2023/04/01 01:23:06;;;;;;;;;;;17.50;71.60;;;;;;9971663;29;96837;-63
2023/04/01 01:28:17;;;;;;;;;;;17.50;71.50;;;;;;9973555;29;94483;-64
2023/04/01 01:33:25;;;;;;;;;;;17.50;71.50;;;;;;9972254;29;94458;-64
2023/04/01 01:38:28;;;;;;;;;;;17.50;71.40;;;;;;9972012;29;93376;-64
2023/04/01 01:43:32;;;;;;;;;;;17.50;71.30;;;;;;9973033;29;96092;-64
2023/04/01 01:48:35;;;;;;;;;;;17.50;71.40;;;;;;9971355;29;94053;-64
2023/04/01 01:53:37;;;;;;;;;;;17.50;71.40;;;;;;9971732;29;94271;-64
2023/04/01 01:58:42;;;;;;;;;;;17.40;71.20;;;;;;9972999;29;92550;-64
2023/04/01 02:03:44;;;;;;;;;;;17.40;71.20;;;;;;9970435;29;93602;-64
2023/04/01 02:08:51;;;;;;;;;;;17.40;71.20;;;;;;9971812;29;92519;-65
2023/04/01 02:14:01;;;;;;;;;;;17.40;71.20;;;;;;9970005;29;96888;-64
2023/04/01 02:19:07;;;;;;;;;;;17.40;71.20;;;;;;9969336;29;95035;-64
2023/04/01 02:24:11;;;;;;;;;;;17.40;71.20;;;;;;9971787;29;93690;-64
2023/04/01 02:29:13;;;;;;;;;;;17.40;71.10;;;;;;9971201;29;93060;-64
2023/04/01 02:34:15;;;;;;;;;;;17.40;71.20;;;;;;9971134;29;93993;-64
2023/04/01 02:39:17;;;;;;;;;;;17.40;71.40;;;;;;9970352;29;93574;-64
2023/04/01 02:44:19;;;;;;;;;;;17.40;71.40;;;;;;9969819;29;93644;-64
2023/04/01 02:49:21;;;;;;;;;;;17.40;71.30;;;;;;9971200;29;92387;-64
2023/04/01 02:54:23;;;;;;;;;;;17.40;71.30;;;;;;9970436;29;94647;-63
2023/04/01 02:59:24;;;;;;;;;;;17.40;71.30;;;;;;9971729;29;93275;-63
2023/04/01 03:04:26;;;;;;;;;;;17.40;71.30;;;;;;9966894;29;95513;-64
2023/04/01 03:09:28;;;;;;;;;;;17.40;71.30;;;;;;9969896;29;93016;-64
2023/04/01 03:14:30;;;;;;;;;;;17.30;71.30;;;;;;9971297;29;94128;-63
2023/04/01 03:19:32;;;;;;;;;;;17.30;71.40;;;;;;9970857;29;93478;-64
2023/04/01 03:24:34;;;;;;;;;;;17.30;71.40;;;;;;9969628;29;92559;-64
2023/04/01 03:29:35;;;;;;;;;;;17.30;71.30;;;;;;9972553;29;94610;-64
2023/04/01 03:34:37;;;;;;;;;;;17.30;71.40;;;;;;9976398;29;93436;-63
2023/04/01 03:39:39;;;;;;;;;;;17.30;71.30;;;;;;9977597;29;92706;-64
2023/04/01 03:44:44;;;;;;;;;;;17.30;71.30;;;;;;9974458;29;93419;-64
2023/04/01 05:07:54;;;;;;;;;;;17.20;71.10;;;;;;10168742;28;94864;-61
2023/04/01 05:12:55;;;;;;;;;;;17.10;71.00;;;;;;10168450;28;93661;-61
2023/04/01 05:17:57;;;;;;;;;;;17.20;71.10;;;;;;10151139;28;95036;-62
2023/04/01 05:22:59;;;;;;;;;;;17.20;71.00;;;;;;10168635;28;93627;-62
2023/04/01 05:28:01;;;;;;;;;;;17.20;71.10;;;;;;10167812;28;93630;-62
2023/04/01 05:33:02;;;;;;;;;;;17.20;71.10;;;;;;10168105;28;95106;-62
2023/04/01 05:38:04;;;;;;;;;;;17.20;71.00;;;;;;10151199;28;93758;-62
2023/04/01 05:43:08;;;;;;;;;;;17.20;71.00;;;;;;10168280;28;94468;-67
2023/04/01 05:48:10;;;;;;;;;;;17.10;70.90;;;;;;10146532;28;93560;-68
2023/04/01 05:53:11;;;;;;;;;;;17.10;70.90;;;;;;10161891;28;96091;-67
2023/04/01 05:58:13;;;;;;;;;;;17.10;70.90;;;;;;10168220;28;93316;-67
2023/04/01 06:03:15;;;;;;;;;;;17.10;70.90;;;;;;10164659;28;93509;-62
2023/04/01 06:08:18;;;;;;;;;;;17.10;70.90;;;;;;10167165;28;93098;-62
2023/04/01 06:13:24;;;;;;;;;;;17.10;70.90;;;;;;10150529;28;93822;-62
2023/04/01 06:18:44;;;;;;;;;;;17.10;70.90;;;;;;10166525;28;94057;-62
2023/04/01 06:24:04;;;;;;;;;;;17.10;70.90;;;;;;10167496;28;93472;-62
2023/04/01 06:29:26;;;;;;;;;;;17.10;70.90;;;;;;10167604;28;93774;-62
2023/04/01 06:34:38;;;;;;;;;;;17.10;71.00;;;;;;10149713;28;94215;-62
2023/04/01 06:39:50;;;;;;;;;;;17.10;70.80;;;;;;10166849;28;94473;-62
2023/04/01 06:45:01;;;;;;;;;;;17.10;70.90;;;;;;10164566;28;95030;-62
2023/04/01 06:50:08;;;;;;;;;;;17.10;70.90;;;;;;10165549;28;94491;-62
2023/04/01 06:55:20;;;;;;;;;;;17.20;70.80;;;;;;10149399;28;93124;-62
2023/04/01 07:00:35;;;;;;;;;;;17.40;70.60;;;;;;10149433;28;93719;-61
2023/04/01 07:05:37;;;;;;;;;;;17.50;70.30;;;;;;10171349;28;94455;-61
2023/04/01 07:10:45;;;;;;;;;;;17.60;70.00;;;;;;10172496;28;94515;-62
2023/04/01 07:16:10;;;;;;;;;;;17.70;69.90;;;;;;10173111;28;94520;-62
2023/04/01 07:21:19;;;;;;;;;;;17.70;69.80;;;;;;10160161;28;92385;-63
2023/04/01 07:26:22;;;;;;;;;;;17.70;69.60;;;;;;10172394;28;95004;-62
2023/04/01 07:31:50;;;;;;;;;;;17.70;69.60;;;;;;10171730;28;93448;-63
2023/04/01 07:36:52;;;;;;;;;;;17.70;69.60;;;;;;10151704;28;95891;-62
2023/04/01 07:42:06;;;;;;;;;;;17.70;69.60;;;;;;10172369;28;93667;-62
2023/04/01 07:47:13;;;;;;;;;;;17.70;69.60;;;;;;10171800;28;93535;-62
2023/04/01 07:52:34;;;;;;;;;;;17.70;71.00;;;;;;10115149;28;93499;-62
2023/04/01 07:57:56;;;;;;;;;;;17.70;71.80;;;;;;10132373;28;93894;-63
2023/04/01 08:02:57;;;;;;;;;;;17.70;71.70;;;;;;10114517;28;95599;-64
2023/04/01 08:08:10;;;;;;;;;;;17.70;72.10;;;;;;10130871;28;94459;-63
2023/04/01 08:13:18;;;;;;;;;;;17.80;72.30;;;;;;10132519;28;92490;-63
2023/04/01 08:18:31;;;;;;;;;;;17.80;72.50;;;;;;10113134;28;94491;-63
2023/04/01 08:23:44;;;;;;;;;;;17.80;72.80;;;;;;10114249;28;94463;-64
2023/04/01 08:28:46;;;;;;;;;;;17.80;73.10;;;;;;10111116;28;95778;-63
2023/04/01 08:33:48;;;;;;;;;;;17.80;73.10;;;;;;10114874;28;93166;-63
2023/04/01 08:38:55;;;;;;;;;;;17.80;73.10;;;;;;10130567;28;93491;-63
2023/04/01 08:44:09;;;;;;;;;;;17.80;73.50;;;;;;10129955;28;93415;-63
2023/04/01 08:49:17;;;;;;;;;;;17.80;73.00;;;;;;10144885;28;93724;-61
2023/04/01 08:54:40;;;;;;;;;;;17.80;73.00;;;;;;10169432;28;93518;-62
2023/04/01 09:00:00;;;;;;;;;;;17.80;73.30;;;;;;10168956;28;93548;-61
2023/04/01 09:05:02;;;;;;;;;;;17.80;72.90;;;;;;10170964;28;92729;-63
2023/04/01 09:10:22;;;;;;;;;;;17.70;73.10;;;;;;10174774;28;94513;-61
2023/04/01 09:15:27;;;;;;;;;;;17.70;73.20;;;;;;10207505;28;93096;-61
2023/04/01 09:20:35;;;;;;;;;;;17.70;73.20;;;;;;10204477;28;96969;-61
2023/04/01 09:25:51;;;;;;;;;;;17.80;73.30;;;;;;10207800;28;93289;-60
2023/04/01 09:30:53;;;;;;;;;;;17.70;73.10;;;;;;10208831;28;93498;-59
2023/04/01 09:35:54;;;;;;;;;;;17.70;73.20;;;;;;10208019;28;94889;-60
2023/04/01 09:40:57;;;;;;;;;;;17.70;73.10;;;;;;10207976;28;94425;-61
2023/04/01 09:46:17;;;;;;;;;;;17.80;73.00;;;;;;10208208;28;93281;-60
2023/04/01 09:51:37;;;;;;;;;;;17.80;73.00;;;;;;10209010;28;93770;-61
2023/04/01 09:56:44;;;;;;;;;;;17.70;72.60;;;;;;10208072;28;92772;-61
2023/04/01 10:01:59;;;;;;;;;;;17.70;72.50;;;;;;10190908;28;94528;-60
2023/04/01 10:07:18;;;;;;;;;;;17.70;72.60;;;;;;10209066;28;93344;-60
2023/04/01 10:12:23;;;;;;;;;;;17.70;72.50;;;;;;10188297;28;96678;-61
2023/04/01 10:17:34;;;;;;;;;;;17.70;72.60;;;;;;10207936;28;94337;-63
2023/04/01 10:23:02;;;;;;;;;;;17.70;72.70;;;;;;10207850;28;94795;-61
2023/04/01 10:28:21;;;;;;;;;;;17.70;72.60;;;;;;10207629;28;93736;-61
2023/04/01 10:33:26;;;;;;;;;;;17.60;72.60;;;;;;10207415;28;94583;-58
2023/04/01 10:38:28;;;;;;;;;;;17.60;72.50;;;;;;10210131;28;93870;-60
2023/04/01 10:43:59;;;;;;;;;;;17.60;72.40;;;;;;10219909;28;93586;-60
2023/04/01 10:49:19;;;;;;;;;;;17.60;72.40;;;;;;10198599;28;93074;-61
2023/04/01 10:54:21;;;;;;;;;;;17.50;72.40;;;;;;10220256;28;94762;-59
2023/04/01 10:59:45;;;;;;;;;;;17.50;72.50;;;;;;10220193;28;95132;-60
2023/04/01 11:05:05;;;;;;;;;;;17.50;72.50;;;;;;10217151;28;97587;-60
2023/04/01 11:10:39;;;;;;;;;;;17.50;72.60;;;;;;10219093;28;93513;-61
2023/04/01 11:15:42;;;;;;;;;;;17.50;72.60;;;;;;10165314;28;113723;-60
2023/04/01 11:20:53;;;;;;;;;;;17.50;72.50;;;;;;10218949;28;94482;-60
2023/04/01 11:26:07;;;;;;;;;;;17.40;72.30;;;;;;10218262;28;92886;-60
2023/04/01 11:31:28;;;;;;;;;;;17.40;72.40;;;;;;10201873;28;93453;-60
2023/04/01 11:36:48;;;;;;;;;;;17.40;72.50;;;;;;10219336;28;93530;-60
2023/04/01 11:42:09;;;;;;;;;;;17.50;72.40;;;;;;10201952;28;93040;-61
2023/04/01 11:47:29;;;;;;;;;;;17.50;72.20;;;;;;10218995;28;94621;-60
2023/04/01 11:52:38;;;;;;;;;;;17.60;72.00;;;;;;10211423;28;94131;-61
2023/04/01 11:57:44;;;;;;;;;;;17.70;71.80;;;;;;10209836;28;97189;-62
2023/04/01 12:03:01;;;;;;;;;;;17.80;71.60;;;;;;10213431;28;94417;-60
2023/04/01 12:08:10;;;;;;;;;;;17.90;72.30;;;;;;10211265;28;93516;-61
2023/04/01 12:13:15;;;;;;;;;;;18.10;74.80;;;;;;10210657;28;93407;-61
2023/04/01 12:18:27;;;;;;;;;;;18.20;74.40;;;;;;10210943;28;93626;-62
2023/04/01 12:23:47;;;;;;;;;;;18.40;73.90;;;;;;10210950;28;93622;-61
2023/04/01 12:28:49;;;;;;;;;;;18.40;73.50;;;;;;10210325;28;93490;-61
2023/04/01 12:33:57;;;;;;;;;;;18.40;73.00;;;;;;10211969;28;93747;-61
2023/04/01 12:39:04;;;;;;;;;;;18.40;73.00;;;;;;10209938;28;93808;-61
2023/04/01 12:44:25;;;;;;;;;;;18.30;73.20;;;;;;10209963;28;93128;-60
2023/04/01 12:50:05;;;;;;;;;;;18.30;73.30;;;;;;10207906;28;95809;-61
2023/04/01 12:55:19;;;;;;;;;;;18.30;73.50;;;;;;10007476;29;94598;-61
2023/04/01 13:00:21;;;;;;;;;;;18.20;73.50;;;;;;10171444;28;93476;-60
2023/04/01 13:05:31;;;;;;;;;;;18.20;73.40;;;;;;10209547;28;93290;-60
2023/04/01 13:10:51;;;;;;;;;;;18.20;73.30;;;;;;10208909;28;93494;-61
2023/04/01 13:16:11;;;;;;;;;;;18.20;73.40;;;;;;10209748;28;94474;-61
2023/04/01 13:21:13;;;;;;;;;;;18.20;73.40;;;;;;10207631;28;93902;-61
2023/04/01 13:26:47;;;;;;;;;;;18.10;74.40;;;;;;10209765;28;93641;-63
2023/04/01 13:32:02;;;;;;;;;;;18.10;73.20;;;;;;10154939;28;93368;-61
2023/04/01 13:37:10;;;;;;;;;;;18.10;73.00;;;;;;10209240;28;95730;-61
2023/04/01 13:42:29;;;;;;;;;;;18.10;73.10;;;;;;10206815;28;96860;-60
2023/04/01 13:47:46;;;;;;;;;;;18.10;73.00;;;;;;10207390;28;94165;-62
2023/04/01 13:53:13;;;;;;;;;;;18.00;72.90;;;;;;10189119;28;92807;-62
2023/04/01 13:58:31;;;;;;;;;;;18.00;72.80;;;;;;10207246;28;93428;-62
2023/04/01 14:03:51;;;;;;;;;;;17.90;72.70;;;;;;10207050;28;93664;-61
2023/04/01 14:09:11;;;;;;;;;;;17.90;72.80;;;;;;10207859;28;93964;-62
2023/04/01 14:14:19;;;;;;;;;;;17.80;72.70;;;;;;10206299;28;94285;-62
2023/04/01 14:19:25;;;;;;;;;;;17.80;72.60;;;;;;10208563;28;93556;-62
2023/04/01 14:24:32;;;;;;;;;;;17.80;72.60;;;;;;10207797;28;93881;-62
2023/04/01 14:29:44;;;;;;;;;;;17.70;72.70;;;;;;10206412;28;93591;-62
2023/04/01 14:34:55;;;;;;;;;;;17.70;72.60;;;;;;10204885;28;96880;-61
2023/04/01 14:40:16;;;;;;;;;;;17.80;72.70;;;;;;10206645;28;95208;-62
2023/04/01 14:45:23;;;;;;;;;;;17.80;72.60;;;;;;10188396;28;93761;-62
2023/04/01 14:50:27;;;;;;;;;;;17.80;72.40;;;;;;10188953;28;93399;-62
2023/04/01 14:55:32;;;;;;;;;;;17.80;72.30;;;;;;10206071;28;93498;-62
2023/04/01 15:00:44;;;;;;;;;;;17.80;72.20;;;;;;10205456;28;93347;-61
2023/04/01 15:05:50;;;;;;;;;;;17.80;72.10;;;;;;10189232;28;94264;-62
2023/04/01 15:11:10;;;;;;;;;;;17.80;72.00;;;;;;10205999;28;92696;-62
2023/04/01 15:16:12;;;;;;;;;;;17.80;71.90;;;;;;10205261;28;92908;-62
2023/04/01 15:21:26;;;;;;;;;;;17.80;71.90;;;;;;10205270;28;94078;-61
2023/04/01 15:26:36;;;;;;;;;;;17.80;71.80;;;;;;10207934;28;95900;-61
2023/04/01 15:31:46;;;;;;;;;;;17.90;72.80;;;;;;10212608;28;93656;-62
2023/04/01 15:37:07;;;;;;;;;;;17.90;71.70;;;;;;10195115;28;93422;-62
2023/04/01 15:42:17;;;;;;;;;;;17.80;71.60;;;;;;10212223;28;93144;-62
2023/04/01 15:47:25;;;;;;;;;;;17.90;71.60;;;;;;10212222;28;93321;-62
2023/04/01 15:52:32;;;;;;;;;;;17.90;71.40;;;;;;10212097;28;93930;-62
2023/04/01 15:57:37;;;;;;;;;;;17.90;71.20;;;;;;10212015;28;93519;-61
2023/04/01 16:02:45;;;;;;;;;;;17.90;71.20;;;;;;10212993;28;92974;-61
2023/04/01 16:07:51;;;;;;;;;;;17.90;71.20;;;;;;10211956;28;94156;-62
2023/04/01 16:13:16;;;;;;;;;;;18.00;71.80;;;;;;10212233;28;93479;-61
2023/04/01 16:18:28;;;;;;;;;;;18.00;72.20;;;;;;10191542;28;95907;-60
2023/04/01 16:23:35;;;;;;;;;;;18.10;72.40;;;;;;10194060;28;93666;-62
2023/04/01 16:28:48;;;;;;;;;;;18.20;73.00;;;;;;10211082;28;94082;-63
2023/04/01 16:33:58;;;;;;;;;;;18.30;73.70;;;;;;10209779;28;93488;-63
2023/04/01 16:39:09;;;;;;;;;;;18.50;73.20;;;;;;10209718;28;94610;-62
2023/04/01 16:44:22;;;;;;;;;;;18.70;76.10;;;;;;10210019;28;93176;-62
2023/04/01 16:49:37;;;;;;;;;;;18.90;75.80;;;;;;10209501;28;94487;-64
2023/04/01 16:54:59;;;;;;;;;;;19.40;74.70;;;;;;10193951;28;92542;-65
2023/04/01 17:00:11;;;;;;;;;;;19.60;72.90;;;;;;10209419;28;94905;-65
2023/04/01 17:05:13;;;;;;;;;;;19.60;72.30;;;;;;10209317;28;93143;-64
2023/04/01 17:10:32;;;;;;;;;;;19.50;72.10;;;;;;10207281;28;96081;-65
2023/04/01 17:15:43;;;;;;;;;;;19.30;72.50;;;;;;10209977;28;93537;-63
2023/04/01 17:20:48;;;;;;;;;;;19.20;72.50;;;;;;10209518;28;94567;-64
2023/04/01 17:26:05;;;;;;;;;;;19.10;72.60;;;;;;10208872;28;93231;-64
2023/04/01 17:31:24;;;;;;;;;;;19.00;72.60;;;;;;10207746;28;93497;-67
2023/04/01 17:36:32;;;;;;;;;;;18.90;72.50;;;;;;10208123;28;94447;-61
2023/04/01 17:41:39;;;;;;;;;;;18.80;72.20;;;;;;10208985;28;93658;-61
2023/04/01 17:46:44;;;;;;;;;;;18.80;72.30;;;;;;10191124;28;92626;-61
2023/04/01 17:52:00;;;;;;;;;;;18.70;72.20;;;;;;10207105;28;93407;-61
2023/04/01 17:57:24;;;;;;;;;;;18.60;72.10;;;;;;10208706;28;93614;-61
2023/04/01 18:02:45;;;;;;;;;;;18.60;72.10;;;;;;10188285;28;95898;-61
2023/04/01 18:07:56;;;;;;;;;;;18.50;72.10;;;;;;10208140;28;93415;-61
2023/04/01 18:13:16;;;;;;;;;;;18.50;72.10;;;;;;10207955;28;93279;-61
2023/04/01 18:18:36;;;;;;;;;;;18.40;71.90;;;;;;10207178;28;93421;-61
2023/04/01 18:23:44;;;;;;;;;;;18.40;72.00;;;;;;10207472;28;93057;-61
2023/04/01 18:28:58;;;;;;;;;;;18.30;71.90;;;;;;10191159;28;93473;-61
2023/04/01 18:34:00;;;;;;;;;;;18.30;71.80;;;;;;10208307;28;94629;-61
2023/04/01 18:39:04;;;;;;;;;;;18.20;71.70;;;;;;10207382;28;96347;-61
2023/04/01 18:44:18;;;;;;;;;;;18.20;71.60;;;;;;10206915;28;94778;-61
2023/04/01 18:49:46;;;;;;;;;;;18.10;71.60;;;;;;10206529;28;92681;-60
2023/04/01 18:54:52;;;;;;;;;;;18.10;71.50;;;;;;10183589;28;97188;-61
2023/04/01 19:00:04;;;;;;;;;;;18.10;71.50;;;;;;10209348;28;94480;-61
2023/04/01 19:05:06;;;;;;;;;;;18.00;71.40;;;;;;10214879;28;94522;-61
2023/04/01 19:10:28;;;;;;;;;;;18.00;71.30;;;;;;10214008;28;94747;-61
2023/04/01 19:15:30;;;;;;;;;;;18.00;71.30;;;;;;10214763;28;93590;-61
2023/04/01 19:20:37;;;;;;;;;;;17.90;71.20;;;;;;10213024;28;93451;-61
2023/04/01 19:25:47;;;;;;;;;;;17.90;71.20;;;;;;10195692;28;94542;-61
2023/04/01 19:30:54;;;;;;;;;;;17.80;71.10;;;;;;10213963;28;92051;-61
2023/04/01 19:36:09;;;;;;;;;;;17.80;71.10;;;;;;10195504;28;94598;-61
2023/04/01 19:41:10;;;;;;;;;;;17.80;71.10;;;;;;10212584;28;94789;-61
2023/04/01 19:46:17;;;;;;;;;;;17.70;71.10;;;;;;10210282;28;98226;-61
2023/04/01 19:51:33;;;;;;;;;;;17.70;71.10;;;;;;10211305;28;93966;-61
2023/04/01 19:56:52;;;;;;;;;;;17.70;71.20;;;;;;10194381;28;93756;-61
2023/04/01 20:02:01;;;;;;;;;;;17.70;71.10;;;;;;10194286;28;93819;-61
2023/04/01 20:07:06;;;;;;;;;;;17.60;71.00;;;;;;10211981;28;93309;-61
2023/04/01 20:12:26;;;;;;;;;;;17.60;70.90;;;;;;10210513;28;93622;-61
2023/04/01 20:17:32;;;;;;;;;;;17.60;70.80;;;;;;10212118;28;94092;-61
2023/04/01 20:22:37;;;;;;;;;;;17.60;70.80;;;;;;10212746;28;93022;-61
2023/04/01 20:27:43;;;;;;;;;;;17.50;70.70;;;;;;10212365;28;94489;-61
2023/04/01 20:33:10;;;;;;;;;;;17.50;70.70;;;;;;10210738;28;94395;-61
2023/04/01 20:38:12;;;;;;;;;;;17.50;70.80;;;;;;10207751;28;95881;-61
2023/04/01 20:43:13;;;;;;;;;;;17.50;70.70;;;;;;10211574;28;94524;-61
2023/04/01 20:48:27;;;;;;;;;;;17.50;70.70;;;;;;10209095;28;93794;-61
2023/04/01 20:53:38;;;;;;;;;;;17.50;70.70;;;;;;10210616;28;93551;-61
2023/04/01 20:58:58;;;;;;;;;;;17.50;70.60;;;;;;10209796;28;93654;-61
2023/04/01 21:04:18;;;;;;;;;;;17.50;70.50;;;;;;10210075;28;94651;-59
2023/04/01 21:09:28;;;;;;;;;;;17.50;70.40;;;;;;10192622;28;93708;-62
2023/04/01 21:14:30;;;;;;;;;;;17.50;70.30;;;;;;10210382;28;92538;-61
2023/04/01 21:19:34;;;;;;;;;;;17.50;70.10;;;;;;10209217;28;93346;-61
2023/04/01 21:24:42;;;;;;;;;;;17.40;70.00;;;;;;10208830;28;93484;-61
2023/04/01 21:30:02;;;;;;;;;;;17.40;70.00;;;;;;10207207;28;97210;-61
2023/04/01 21:35:22;;;;;;;;;;;17.40;69.90;;;;;;10208758;28;93647;-61
2023/04/01 21:40:36;;;;;;;;;;;17.40;69.80;;;;;;10207974;28;93524;-61
2023/04/01 21:45:50;;;;;;;;;;;17.40;69.80;;;;;;10208892;28;93844;-61
2023/04/01 21:51:10;;;;;;;;;;;17.40;69.70;;;;;;10191834;28;93354;-62
2023/04/01 21:56:21;;;;;;;;;;;17.30;69.60;;;;;;10208672;28;94291;-61
2023/04/01 22:01:45;;;;;;;;;;;17.30;69.60;;;;;;10208930;28;94501;-61
2023/04/01 22:06:51;;;;;;;;;;;17.30;69.60;;;;;;10209883;28;92004;-61
2023/04/01 22:12:01;;;;;;;;;;;17.30;69.50;;;;;;10209042;28;93278;-61
2023/04/01 22:17:08;;;;;;;;;;;17.30;69.40;;;;;;10208763;28;94513;-61
2023/04/01 22:22:16;;;;;;;;;;;17.30;69.20;;;;;;10205914;28;96849;-61
2023/04/01 22:27:24;;;;;;;;;;;17.30;69.30;;;;;;10208579;28;94277;-61
2023/04/01 22:32:43;;;;;;;;;;;17.20;69.00;;;;;;10190442;28;94126;-61
2023/04/01 22:37:51;;;;;;;;;;;17.20;69.20;;;;;;10206560;28;94118;-61
2023/04/01 22:42:52;;;;;;;;;;;17.20;69.00;;;;;;10207124;28;93359;-61
2023/04/01 22:48:01;;;;;;;;;;;17.20;68.90;;;;;;10206806;28;93462;-61
2023/04/01 22:53:21;;;;;;;;;;;17.20;68.90;;;;;;10207389;28;94595;-61
2023/04/01 22:58:32;;;;;;;;;;;17.10;68.70;;;;;;10208793;28;93804;-60
2023/04/01 23:03:36;;;;;;;;;;;17.20;68.70;;;;;;10189878;28;92868;-61
2023/04/01 23:08:43;;;;;;;;;;;17.10;68.70;;;;;;10206872;28;94820;-61
2023/04/01 23:13:48;;;;;;;;;;;17.10;68.70;;;;;;10204190;28;97151;-61
2023/04/01 23:18:54;;;;;;;;;;;17.10;68.70;;;;;;10188704;28;92539;-61
2023/04/01 23:24:15;;;;;;;;;;;17.10;68.70;;;;;;10206326;28;92755;-61
2023/04/01 23:29:17;;;;;;;;;;;17.10;68.70;;;;;;10188853;28;94445;-61
2023/04/01 23:34:27;;;;;;;;;;;17.10;68.50;;;;;;10206096;28;94210;-61
2023/04/01 23:39:36;;;;;;;;;;;17.10;68.50;;;;;;10188400;28;94419;-61
2023/04/01 23:44:38;;;;;;;;;;;17.10;68.70;;;;;;10206778;28;93463;-61
2023/04/01 23:49:47;;;;;;;;;;;17.10;68.50;;;;;;10214309;28;93763;-62
2023/04/01 23:54:54;;;;;;;;;;;17.10;68.40;;;;;;10212660;28;93585;-61
